createdAt,value
2018-06-09T00:00:22.108Z,25.41
2018-06-09T00:02:48.538Z,25.38
2018-06-09T00:05:15.456Z,25.37
2018-06-09T00:07:41.870Z,25.40
2018-06-09T00:10:08.243Z,25.36
2018-06-09T00:12:41.726Z,25.37
2018-06-09T00:15:08.149Z,25.38
2018-06-09T00:17:34.597Z,25.34
2018-06-09T00:20:01.044Z,25.37
2018-06-09T00:22:27.418Z,25.33
2018-06-09T00:24:53.862Z,25.31
2018-06-09T00:27:20.332Z,25.34
2018-06-09T00:29:46.742Z,25.34
2018-06-09T00:32:13.163Z,25.27
2018-06-09T00:34:39.529Z,25.30
2018-06-09T00:37:05.975Z,25.36
2018-06-09T00:39:32.421Z,25.38
2018-06-09T00:41:58.806Z,25.34
2018-06-09T00:44:25.225Z,25.26
2018-06-09T00:46:51.623Z,25.27
2018-06-09T00:49:17.989Z,25.30
2018-06-09T00:51:44.386Z,25.32
2018-06-09T00:54:10.806Z,25.29
2018-06-09T00:56:37.187Z,25.30
2018-06-09T00:59:03.592Z,25.27
2018-06-09T01:01:29.993Z,25.23
2018-06-09T01:03:56.416Z,25.28
2018-06-09T01:06:22.844Z,25.19
2018-06-09T01:08:49.338Z,25.24
2018-06-09T01:11:15.717Z,25.24
2018-06-09T01:13:42.102Z,25.26
2018-06-09T01:16:08.505Z,25.22
2018-06-09T01:18:34.894Z,25.23
2018-06-09T01:21:01.300Z,25.22
2018-06-09T01:23:27.653Z,25.19
2018-06-09T01:25:54.147Z,25.23
2018-06-09T01:28:20.563Z,25.22
2018-06-09T01:30:47.006Z,25.23
2018-06-09T01:33:13.361Z,25.19
2018-06-09T01:35:39.847Z,25.21
2018-06-09T01:38:06.226Z,25.19
2018-06-09T01:40:32.639Z,25.16
2018-06-09T01:42:59.072Z,25.21
2018-06-09T01:45:25.475Z,25.17
2018-06-09T01:47:51.852Z,25.22
2018-06-09T01:50:18.288Z,25.20
2018-06-09T01:52:44.714Z,25.16
2018-06-09T01:55:11.088Z,25.17
2018-06-09T01:57:37.489Z,25.15
2018-06-09T02:00:03.903Z,25.07
2018-06-09T02:02:30.386Z,25.13
2018-06-09T02:04:56.782Z,25.12
2018-06-09T02:07:23.196Z,25.08
2018-06-09T02:09:49.642Z,25.09
2018-06-09T02:12:16.030Z,25.13
2018-06-09T02:14:42.417Z,25.09
2018-06-09T02:17:08.833Z,25.13
2018-06-09T02:19:35.221Z,25.08
2018-06-09T02:22:01.665Z,25.13
2018-06-09T02:24:28.058Z,25.09
2018-06-09T02:26:54.450Z,25.09
2018-06-09T02:29:20.884Z,25.11
2018-06-09T02:31:47.253Z,25.08
2018-06-09T02:34:13.666Z,25.05
2018-06-09T02:36:40.105Z,25.08
2018-06-09T02:39:06.480Z,25.08
2018-06-09T02:41:32.846Z,25.08
2018-06-09T02:43:59.253Z,25.03
2018-06-09T02:46:25.733Z,25.05
2018-06-09T02:48:52.119Z,25.04
2018-06-09T02:51:18.548Z,25.05
2018-06-09T02:53:44.981Z,25.04
2018-06-09T02:56:11.583Z,25.04
2018-06-09T02:58:38.016Z,25.04
2018-06-09T03:01:04.412Z,25.07
2018-06-09T03:03:30.862Z,25.02
2018-06-09T03:05:57.253Z,25.04
2018-06-09T03:08:23.612Z,25.01
2018-06-09T03:10:49.973Z,25.02
2018-06-09T03:13:16.354Z,25.02
2018-06-09T03:15:42.805Z,25.02
2018-06-09T03:18:09.202Z,25.02
2018-06-09T03:20:35.689Z,25.00
2018-06-09T03:23:02.054Z,25.02
2018-06-09T03:25:28.480Z,25.02
2018-06-09T03:27:55.338Z,25.00
2018-06-09T03:30:21.806Z,25.00
2018-06-09T03:32:48.642Z,24.97
2018-06-09T03:35:15.080Z,24.98
2018-06-09T03:37:41.449Z,24.96
2018-06-09T03:40:07.826Z,25.01
2018-06-09T03:42:34.342Z,25.03
2018-06-09T03:45:00.826Z,24.99
2018-06-09T03:47:27.248Z,25.00
2018-06-09T03:49:53.634Z,24.98
2018-06-09T03:52:19.989Z,24.99
2018-06-09T03:54:46.349Z,24.96
2018-06-09T03:57:12.739Z,24.92
2018-06-09T03:59:39.190Z,24.97
2018-06-09T04:02:05.558Z,24.96
2018-06-09T04:04:31.928Z,24.99
2018-06-09T04:06:58.302Z,25.01
2018-06-09T04:09:24.764Z,24.94
2018-06-09T04:11:51.234Z,24.95
2018-06-09T04:14:17.610Z,24.99
2018-06-09T04:16:43.989Z,24.92
2018-06-09T04:19:10.369Z,24.96
2018-06-09T04:21:36.809Z,24.99
2018-06-09T04:24:03.216Z,24.99
2018-06-09T04:26:29.646Z,24.91
2018-06-09T04:28:56.084Z,25.00
2018-06-09T04:31:22.455Z,24.93
2018-06-09T04:33:48.812Z,24.89
2018-06-09T04:36:15.206Z,24.94
2018-06-09T04:38:41.612Z,24.97
2018-06-09T04:41:07.978Z,24.94
2018-06-09T04:43:34.426Z,24.97
2018-06-09T04:46:00.820Z,24.97
2018-06-09T04:48:27.193Z,25.02
2018-06-09T04:50:53.631Z,25.04
2018-06-09T04:53:20.012Z,25.00
2018-06-09T04:55:46.425Z,25.07
2018-06-09T04:58:12.803Z,25.03
2018-06-09T05:00:39.213Z,25.08
2018-06-09T05:03:05.610Z,25.11
2018-06-09T05:05:32.013Z,25.10
2018-06-09T05:07:58.421Z,25.09
2018-06-09T05:10:24.794Z,25.13
2018-06-09T05:12:51.371Z,25.16
2018-06-09T05:15:17.818Z,25.19
2018-06-09T05:17:44.278Z,25.18
2018-06-09T05:20:10.687Z,25.19
2018-06-09T05:22:37.090Z,25.21
2018-06-09T05:25:03.464Z,25.18
2018-06-09T05:27:29.929Z,25.24
2018-06-09T05:29:56.347Z,25.28
2018-06-09T05:32:22.715Z,25.29
2018-06-09T05:34:49.274Z,25.33
2018-06-09T05:37:15.631Z,25.38
2018-06-09T05:39:42.000Z,25.42
2018-06-09T05:42:08.413Z,25.46
2018-06-09T05:44:34.816Z,25.50
2018-06-09T05:47:01.233Z,25.56
2018-06-09T05:49:27.598Z,25.58
2018-06-09T05:51:54.003Z,25.60
2018-06-09T05:54:20.450Z,25.71
2018-06-09T05:56:46.858Z,25.75
2018-06-09T05:59:13.291Z,25.81
2018-06-09T06:01:39.901Z,25.83
2018-06-09T06:04:06.270Z,25.87
2018-06-09T06:06:32.642Z,25.94
2018-06-09T06:08:59.074Z,26.02
2018-06-09T06:11:25.485Z,26.05
2018-06-09T06:13:51.947Z,26.09
2018-06-09T06:16:18.385Z,26.19
2018-06-09T06:18:44.757Z,26.22
2018-06-09T06:21:11.115Z,26.22
2018-06-09T06:23:37.470Z,26.33
2018-06-09T06:26:03.846Z,26.35
2018-06-09T06:28:30.342Z,26.42
2018-06-09T06:30:56.708Z,26.50
2018-06-09T06:33:23.032Z,26.50
2018-06-09T06:35:49.437Z,26.55
2018-06-09T06:38:15.814Z,26.59
2018-06-09T06:40:42.188Z,26.66
2018-06-09T06:43:08.505Z,26.70
2018-06-09T06:45:34.824Z,26.72
2018-06-09T06:48:01.151Z,26.74
2018-06-09T06:50:27.491Z,26.77
2018-06-09T06:52:53.856Z,26.81
2018-06-09T06:55:20.213Z,26.84
2018-06-09T06:57:46.547Z,26.90
2018-06-09T07:00:12.921Z,26.93
2018-06-09T07:02:39.263Z,26.94
2018-06-09T07:05:05.591Z,26.99
2018-06-09T07:07:31.927Z,27.00
2018-06-09T07:09:58.339Z,27.05
2018-06-09T07:12:24.656Z,27.12
2018-06-09T07:14:50.972Z,27.14
2018-06-09T07:17:17.308Z,27.19
2018-06-09T07:19:43.663Z,27.24
2018-06-09T07:22:10.167Z,27.25
2018-06-09T07:24:36.482Z,27.29
2018-06-09T07:27:02.864Z,27.30
2018-06-09T07:29:29.189Z,27.34
2018-06-09T07:31:55.517Z,27.36
2018-06-09T07:34:21.975Z,27.41
2018-06-09T07:36:48.472Z,27.41
2018-06-09T07:39:14.839Z,27.46
2018-06-09T07:41:41.169Z,27.49
2018-06-09T07:44:07.573Z,27.49
2018-06-09T07:46:33.892Z,27.52
2018-06-09T07:49:00.516Z,27.53
2018-06-09T07:51:26.835Z,27.53
2018-06-09T07:53:53.172Z,27.54
2018-06-09T07:56:19.655Z,27.58
2018-06-09T07:58:46.010Z,27.61
2018-06-09T08:01:12.357Z,27.60
2018-06-09T08:03:38.761Z,27.62
2018-06-09T08:06:05.116Z,27.68
2018-06-09T08:08:31.544Z,27.63
2018-06-09T08:10:57.899Z,27.64
2018-06-09T08:13:24.236Z,27.63
2018-06-09T08:15:50.634Z,27.66
2018-06-09T08:18:17.293Z,27.66
2018-06-09T08:20:43.704Z,27.65
2018-06-09T08:23:10.122Z,27.66
2018-06-09T08:25:36.460Z,27.68
2018-06-09T08:28:02.850Z,27.67
2018-06-09T08:30:29.171Z,27.72
2018-06-09T08:32:55.511Z,27.73
2018-06-09T08:35:22.912Z,27.70
2018-06-09T08:37:49.307Z,27.73
2018-06-09T08:40:15.657Z,27.73
2018-06-09T08:42:42.037Z,27.71
2018-06-09T08:45:08.399Z,27.78
2018-06-09T08:47:34.746Z,27.80
2018-06-09T08:50:01.098Z,27.78
2018-06-09T08:52:27.426Z,27.78
2018-06-09T08:54:53.786Z,27.78
2018-06-09T08:57:20.123Z,27.78
2018-06-09T08:59:46.471Z,27.83
2018-06-09T09:02:12.871Z,27.89
2018-06-09T09:04:39.273Z,27.85
2018-06-09T09:07:06.426Z,27.83
2018-06-09T09:09:32.753Z,27.85
2018-06-09T09:11:59.137Z,27.83
2018-06-09T09:14:25.518Z,27.84
2018-06-09T09:16:51.972Z,27.88
2018-06-09T09:19:18.461Z,27.85
2018-06-09T09:21:44.840Z,27.81
2018-06-09T09:24:11.608Z,27.85
2018-06-09T09:26:38.062Z,27.86
2018-06-09T09:29:04.504Z,27.88
2018-06-09T09:31:30.929Z,27.89
2018-06-09T09:33:57.831Z,27.90
2018-06-09T09:36:24.379Z,27.92
2018-06-09T09:38:51.466Z,27.89
2018-06-09T09:41:18.692Z,27.89
2018-06-09T09:43:45.124Z,27.90
2018-06-09T09:46:11.604Z,27.85
2018-06-09T09:48:38.076Z,27.82
2018-06-09T09:51:04.407Z,27.86
2018-06-09T09:53:30.845Z,27.84
2018-06-09T09:55:57.171Z,27.89
2018-06-09T09:58:23.506Z,27.85
2018-06-09T10:00:49.825Z,27.85
2018-06-09T10:03:16.194Z,27.81
2018-06-09T10:05:42.535Z,27.84
2018-06-09T10:08:08.911Z,27.86
2018-06-09T10:10:35.292Z,27.88
2018-06-09T10:13:01.633Z,27.87
2018-06-09T10:15:27.997Z,27.90
2018-06-09T10:17:54.315Z,27.88
2018-06-09T10:20:20.638Z,27.93
2018-06-09T10:22:47.025Z,27.93
2018-06-09T10:25:13.403Z,27.94
2018-06-09T10:27:39.727Z,27.95
2018-06-09T10:30:06.075Z,27.99
2018-06-09T10:32:32.506Z,27.95
2018-06-09T10:34:58.915Z,27.99
2018-06-09T10:37:25.244Z,28.01
2018-06-09T10:39:51.611Z,28.03
2018-06-09T10:42:17.945Z,27.99
2018-06-09T10:44:44.272Z,27.99
2018-06-09T10:47:10.607Z,28.03
2018-06-09T10:49:36.956Z,28.00
2018-06-09T10:52:03.378Z,28.03
2018-06-09T10:54:29.739Z,28.05
2018-06-09T10:56:56.112Z,28.05
2018-06-09T10:59:22.575Z,28.08
2018-06-09T11:01:48.999Z,28.09
2018-06-09T11:04:15.361Z,28.04
2018-06-09T11:06:41.739Z,28.08
2018-06-09T11:09:08.084Z,28.11
2018-06-09T11:11:34.403Z,28.12
2018-06-09T11:14:00.739Z,28.14
2018-06-09T11:16:27.106Z,28.12
2018-06-09T11:18:53.544Z,28.14
2018-06-09T11:21:19.950Z,28.14
2018-06-09T11:23:46.268Z,28.12
2018-06-09T11:26:12.645Z,28.17
2018-06-09T11:28:39.007Z,28.20
2018-06-09T11:31:05.387Z,28.18
2018-06-09T11:33:31.723Z,28.22
2018-06-09T11:35:58.074Z,28.22
2018-06-09T11:38:24.479Z,28.24
2018-06-09T11:40:50.820Z,28.23
2018-06-09T11:43:17.168Z,28.23
2018-06-09T11:45:43.560Z,28.20
2018-06-09T11:48:09.919Z,28.17
2018-06-09T11:50:36.245Z,28.26
2018-06-09T11:53:02.571Z,28.26
2018-06-09T11:55:28.956Z,28.23
2018-06-09T11:57:55.370Z,28.25
2018-06-09T12:00:21.819Z,28.25
2018-06-09T12:02:48.203Z,28.26
2018-06-09T12:05:14.542Z,28.27
2018-06-09T12:07:40.903Z,28.26
2018-06-09T12:10:07.298Z,28.25
2018-06-09T12:12:33.659Z,28.21
2018-06-09T12:15:00.022Z,28.24
2018-06-09T12:17:26.792Z,28.23
2018-06-09T12:19:53.147Z,28.22
2018-06-09T12:22:19.526Z,28.17
2018-06-09T12:24:45.848Z,28.18
2018-06-09T12:27:12.253Z,28.18
2018-06-09T12:29:38.658Z,28.22
2018-06-09T12:32:05.059Z,28.18
2018-06-09T12:34:31.493Z,28.17
2018-06-09T12:36:57.823Z,28.10
2018-06-09T12:39:24.193Z,28.08
2018-06-09T12:41:50.554Z,28.09
2018-06-09T12:44:16.892Z,28.07
2018-06-09T12:46:43.224Z,28.02
2018-06-09T12:49:09.607Z,28.01
2018-06-09T12:51:36.012Z,27.99
2018-06-09T12:54:02.404Z,27.94
2018-06-09T12:56:28.752Z,27.99
2018-06-09T12:58:55.092Z,27.99
2018-06-09T13:01:21.480Z,27.96
2018-06-09T13:03:48.637Z,27.95
2018-06-09T13:06:14.988Z,27.94
2018-06-09T13:08:41.331Z,27.91
2018-06-09T13:11:11.143Z,27.95
2018-06-09T13:13:37.495Z,27.89
2018-06-09T13:16:03.824Z,27.87
2018-06-09T13:18:30.148Z,27.87
2018-06-09T13:20:56.504Z,27.83
2018-06-09T13:23:22.876Z,27.85
2018-06-09T13:25:49.229Z,27.85
2018-06-09T13:28:15.577Z,27.86
2018-06-09T13:30:41.921Z,27.86
2018-06-09T13:33:08.269Z,27.87
2018-06-09T13:35:34.624Z,27.83
2018-06-09T13:38:00.974Z,27.89
2018-06-09T13:40:27.298Z,27.90
2018-06-09T13:42:53.621Z,27.90
2018-06-09T13:45:19.951Z,27.92
2018-06-09T13:47:46.301Z,27.93
2018-06-09T13:50:12.636Z,27.92
2018-06-09T13:52:38.999Z,27.92
2018-06-09T13:55:05.365Z,27.93
2018-06-09T13:57:31.723Z,27.91
2018-06-09T13:59:58.094Z,27.94
2018-06-09T14:02:24.426Z,27.95
2018-06-09T14:04:50.776Z,27.96
2018-06-09T14:07:17.121Z,27.96
2018-06-09T14:09:43.448Z,27.95
2018-06-09T14:12:09.801Z,27.96
2018-06-09T14:14:36.139Z,27.98
2018-06-09T14:17:02.492Z,27.96
2018-06-09T14:19:28.820Z,28.00
2018-06-09T14:21:55.156Z,28.00
2018-06-09T14:24:21.476Z,28.01
2018-06-09T14:26:47.844Z,28.01
2018-06-09T14:29:14.195Z,28.00
2018-06-09T14:31:40.568Z,27.96
2018-06-09T14:34:06.949Z,28.01
2018-06-09T14:36:33.308Z,28.01
2018-06-09T14:38:59.647Z,28.00
2018-06-09T14:41:26.034Z,27.99
2018-06-09T14:43:52.386Z,27.99
2018-06-09T14:46:18.717Z,28.00
2018-06-09T14:48:45.046Z,28.00
2018-06-09T14:51:11.389Z,28.00
2018-06-09T14:53:37.722Z,27.97
2018-06-09T14:56:04.053Z,27.97
2018-06-09T14:58:30.388Z,27.98
2018-06-09T15:00:56.753Z,27.94
2018-06-09T15:03:23.083Z,27.94
2018-06-09T15:05:49.411Z,27.94
2018-06-09T15:08:15.744Z,27.90
2018-06-09T15:10:42.096Z,27.92
2018-06-09T15:13:08.422Z,27.92
2018-06-09T15:15:34.747Z,27.87
2018-06-09T15:18:01.120Z,27.90
2018-06-09T15:20:27.510Z,27.91
2018-06-09T15:22:53.844Z,27.90
2018-06-09T15:25:20.175Z,27.86
2018-06-09T15:27:46.541Z,27.87
2018-06-09T15:30:12.930Z,27.88
2018-06-09T15:32:39.291Z,27.87
2018-06-09T15:35:05.633Z,27.87
2018-06-09T15:37:31.997Z,27.83
2018-06-09T15:39:58.363Z,27.81
2018-06-09T15:42:24.742Z,27.81
2018-06-09T15:44:51.135Z,27.81
2018-06-09T15:47:17.484Z,27.80
2018-06-09T15:49:43.856Z,27.79
2018-06-09T15:52:10.220Z,27.77
2018-06-09T15:54:36.632Z,27.77
2018-06-09T15:57:03.028Z,27.70
2018-06-09T15:59:29.407Z,27.74
2018-06-09T16:01:55.773Z,27.74
2018-06-09T16:04:22.174Z,27.75
2018-06-09T16:06:48.575Z,27.72
2018-06-09T16:09:14.905Z,27.72
2018-06-09T16:11:41.264Z,27.71
2018-06-09T16:14:07.584Z,27.69
2018-06-09T16:16:33.939Z,27.69
2018-06-09T16:19:00.307Z,27.70
2018-06-09T16:21:26.726Z,27.68
2018-06-09T16:23:53.048Z,27.67
2018-06-09T16:26:19.404Z,27.67
2018-06-09T16:28:45.775Z,27.64
2018-06-09T16:31:12.092Z,27.65
2018-06-09T16:33:38.469Z,27.63
2018-06-09T16:36:04.795Z,27.62
2018-06-09T16:38:31.227Z,27.58
2018-06-09T16:40:57.541Z,27.57
2018-06-09T16:43:23.908Z,27.56
2018-06-09T16:45:50.284Z,27.55
2018-06-09T16:48:16.725Z,27.49
2018-06-09T16:50:43.055Z,27.45
2018-06-09T16:53:09.399Z,27.45
2018-06-09T16:55:35.768Z,27.43
2018-06-09T16:58:02.116Z,27.41
2018-06-09T17:00:28.558Z,27.34
2018-06-09T17:02:54.897Z,27.36
2018-06-09T17:05:21.273Z,27.34
2018-06-09T17:07:47.639Z,27.32
2018-06-09T17:10:13.983Z,27.30
2018-06-09T17:12:40.380Z,27.27
2018-06-09T17:15:06.697Z,27.28
2018-06-09T17:17:33.047Z,27.24
2018-06-09T17:19:59.412Z,27.23
2018-06-09T17:22:25.804Z,27.18
2018-06-09T17:24:52.184Z,27.12
2018-06-09T17:27:18.527Z,27.15
2018-06-09T17:29:44.883Z,27.15
2018-06-09T17:32:11.264Z,27.08
2018-06-09T17:34:37.581Z,27.12
2018-06-09T17:37:03.965Z,27.10
2018-06-09T17:39:30.300Z,27.04
2018-06-09T17:41:56.620Z,27.06
2018-06-09T17:44:22.986Z,27.02
2018-06-09T17:46:49.303Z,27.02
2018-06-09T17:49:15.652Z,26.99
2018-06-09T17:51:42.020Z,26.94
2018-06-09T17:54:08.339Z,26.94
2018-06-09T17:56:34.725Z,26.91
2018-06-09T17:59:01.039Z,26.89
2018-06-09T18:01:27.355Z,26.88
2018-06-09T18:03:53.721Z,26.89
2018-06-09T18:06:20.060Z,26.88
2018-06-09T18:08:46.385Z,26.91
2018-06-09T18:11:12.740Z,26.88
2018-06-09T18:13:39.100Z,26.83
2018-06-09T18:16:05.433Z,26.81
2018-06-09T18:18:31.823Z,26.80
2018-06-09T18:20:58.143Z,26.79
2018-06-09T18:23:24.466Z,26.77
2018-06-09T18:25:50.849Z,26.74
2018-06-09T18:28:17.244Z,26.72
2018-06-09T18:30:43.627Z,26.75
2018-06-09T18:33:09.967Z,26.65
2018-06-09T18:35:36.285Z,26.65
2018-06-09T18:38:02.652Z,26.66
2018-06-09T18:40:29.014Z,26.66
2018-06-09T18:42:55.341Z,26.64
2018-06-09T18:45:21.734Z,26.57
2018-06-09T18:47:48.099Z,26.60
2018-06-09T18:50:14.478Z,26.57
2018-06-09T18:52:40.827Z,26.57
2018-06-09T18:55:07.200Z,26.58
2018-06-09T18:57:33.515Z,26.54
2018-06-09T18:59:59.832Z,26.51
2018-06-09T19:02:26.204Z,26.44
2018-06-09T19:04:52.541Z,26.52
2018-06-09T19:07:18.914Z,26.51
2018-06-09T19:09:45.247Z,26.50
2018-06-09T19:12:11.612Z,26.45
2018-06-09T19:14:37.931Z,26.49
2018-06-09T19:17:04.282Z,26.48
2018-06-09T19:19:30.650Z,26.49
2018-06-09T19:21:57.006Z,26.47
2018-06-09T19:24:23.396Z,26.49
2018-06-09T19:26:49.776Z,26.48
2018-06-09T19:29:16.133Z,26.46
2018-06-09T19:31:42.570Z,26.44
2018-06-09T19:34:08.934Z,26.43
2018-06-09T19:36:35.256Z,26.43
2018-06-09T19:39:01.619Z,26.42
2018-06-09T19:41:27.940Z,26.42
2018-06-09T19:43:54.331Z,26.36
2018-06-09T19:46:20.669Z,26.39
2018-06-09T19:48:47.027Z,26.38
2018-06-09T19:51:13.389Z,26.35
2018-06-09T19:53:39.708Z,26.33
2018-06-09T19:56:06.076Z,26.32
2018-06-09T19:58:32.401Z,26.33
2018-06-09T20:00:58.796Z,26.32
2018-06-09T20:03:25.138Z,26.31
2018-06-09T20:05:51.512Z,26.31
2018-06-09T20:08:17.880Z,26.32
2018-06-09T20:10:44.265Z,26.30
2018-06-09T20:13:10.577Z,26.27
2018-06-09T20:15:36.904Z,26.32
2018-06-09T20:18:03.236Z,26.26
2018-06-09T20:20:29.623Z,26.26
2018-06-09T20:22:55.954Z,26.23
2018-06-09T20:25:22.397Z,26.20
2018-06-09T20:27:48.756Z,26.21
2018-06-09T20:30:15.115Z,26.16
2018-06-09T20:32:41.487Z,26.15
2018-06-09T20:35:07.825Z,26.10
2018-06-09T20:37:34.279Z,26.13
2018-06-09T20:40:00.567Z,26.14
2018-06-09T20:42:26.902Z,26.13
2018-06-09T20:44:53.259Z,26.17
2018-06-09T20:47:19.605Z,26.08
2018-06-09T20:49:45.937Z,26.06
2018-06-09T20:52:12.319Z,26.05
2018-06-09T20:54:38.647Z,26.07
2018-06-09T20:57:04.965Z,26.07
2018-06-09T20:59:31.331Z,25.99
2018-06-09T21:01:57.653Z,26.02
2018-06-09T21:04:23.959Z,26.01
2018-06-09T21:06:50.296Z,25.96
2018-06-09T21:09:16.636Z,25.97
2018-06-09T21:11:42.999Z,25.97
2018-06-09T21:14:09.383Z,25.97
2018-06-09T21:16:35.735Z,25.91
2018-06-09T21:19:02.113Z,25.93
2018-06-09T21:21:28.499Z,25.90
2018-06-09T21:23:54.822Z,25.90
2018-06-09T21:26:21.165Z,25.89
2018-06-09T21:28:47.504Z,25.89
2018-06-09T21:31:13.837Z,25.83
2018-06-09T21:33:40.260Z,25.85
2018-06-09T21:36:06.584Z,25.86
2018-06-09T21:38:32.948Z,25.89
2018-06-09T21:40:59.367Z,25.88
2018-06-09T21:43:25.691Z,25.85
2018-06-09T21:45:52.081Z,25.85
2018-06-09T21:48:18.530Z,25.81
2018-06-09T21:50:44.852Z,25.84
2018-06-09T21:53:11.264Z,25.80
2018-06-09T21:55:37.618Z,25.79
2018-06-09T21:58:03.982Z,25.78
2018-06-09T22:00:30.374Z,25.81
2018-06-09T22:02:56.699Z,25.78
2018-06-09T22:05:23.033Z,25.78
2018-06-09T22:07:49.452Z,25.72
2018-06-09T22:10:15.799Z,25.68
2018-06-09T22:12:42.170Z,25.67
2018-06-09T22:15:08.520Z,25.74
2018-06-09T22:17:34.855Z,25.69
2018-06-09T22:20:01.177Z,25.66
2018-06-09T22:22:27.504Z,25.66
2018-06-09T22:24:53.829Z,25.66
2018-06-09T22:27:20.256Z,25.69
2018-06-09T22:29:46.579Z,25.63
2018-06-09T22:32:12.962Z,25.62
2018-06-09T22:34:39.382Z,25.66
2018-06-09T22:37:05.733Z,25.62
2018-06-09T22:39:32.065Z,25.61
2018-06-09T22:41:58.396Z,25.58
2018-06-09T22:44:25.725Z,25.58
2018-06-09T22:46:52.124Z,25.60
2018-06-09T22:49:18.455Z,25.61
2018-06-09T22:51:44.819Z,25.62
2018-06-09T22:54:11.166Z,25.57
2018-06-09T22:56:37.490Z,25.53
2018-06-09T22:59:03.845Z,25.52
2018-06-09T23:01:30.224Z,25.54
2018-06-09T23:03:56.583Z,25.50
2018-06-09T23:06:22.903Z,25.54
2018-06-09T23:08:49.258Z,25.50
2018-06-09T23:11:15.603Z,25.49
2018-06-09T23:13:41.964Z,25.48
2018-06-09T23:16:08.296Z,25.48
2018-06-09T23:18:34.711Z,25.49
2018-06-09T23:21:01.040Z,25.49
2018-06-09T23:23:27.411Z,25.46
2018-06-09T23:25:53.732Z,25.44
2018-06-09T23:28:20.055Z,25.42
2018-06-09T23:30:46.386Z,25.42
2018-06-09T23:33:12.742Z,25.48
2018-06-09T23:35:39.097Z,25.41
2018-06-09T23:38:05.426Z,25.42
2018-06-09T23:40:31.743Z,25.41
2018-06-09T23:42:58.051Z,25.40
2018-06-09T23:45:24.407Z,25.40
2018-06-09T23:47:50.726Z,25.42
2018-06-09T23:50:17.086Z,25.36
2018-06-09T23:52:43.412Z,25.36
2018-06-09T23:55:09.762Z,25.34
2018-06-09T23:57:36.071Z,25.35
